Time;durP1;ratioP1;P1;durP2;ratioP2;P2;SDS_P1;SDS_P2;PMS_P1;PMS_P2;Temp;Humidity;BMP_temperature;BMP_pressure;BME280_temperature;BME280_humidity;BME280_pressure;Samples;Min_cycle;Max_cycle;Signal;HPM_P1;HPM_P2
2021/07/29 00:04:26;;;;;;;4.45;4.05;;;20.60;99.90;;;;;;5004224;28;20237;-79
2021/07/29 00:42:43;;;;;;;4.60;4.00;;;20.20;99.90;;;;;;5049883;28;20297;-77
2021/07/29 00:51:28;;;;;;;4.65;4.25;;;20.00;99.90;;;;;;5018520;28;20231;-79
2021/07/29 01:08:31;;;;;;;4.40;4.00;;;20.00;99.90;;;;;;5018780;28;20217;-77
2021/07/29 01:11:27;;;;;;;4.00;3.65;;;20.00;99.90;;;;;;5048250;28;20248;-79
2021/07/29 01:19:58;;;;;;;4.22;3.83;;;20.10;99.90;;;;;;5028419;28;20221;-77
2021/07/29 01:22:39;;;;;;;4.28;3.92;;;20.10;99.90;;;;;;5019431;28;20235;-78
2021/07/29 01:28:10;;;;;;;4.28;3.88;;;20.10;99.90;;;;;;5031952;28;20221;-79
2021/07/29 01:42:08;;;;;;;4.13;3.80;;;20.10;99.90;;;;;;5046452;28;20329;-77
2021/07/29 01:45:12;;;;;;;5.05;4.55;;;20.10;99.90;;;;;;5043518;28;20233;-77
2021/07/29 01:53:36;;;;;;;3.97;3.67;;;20.10;99.90;;;;;;5051979;28;20218;-77
2021/07/29 01:56:11;;;;;;;4.22;3.90;;;20.10;99.90;;;;;;5020614;28;20279;-77
2021/07/29 02:01:32;;;;;;;3.40;3.10;;;20.00;99.90;;;;;;5062746;28;20995;-77
2021/07/29 02:26:48;;;;;;;3.95;3.60;;;19.90;99.90;;;;;;5112784;27;20575;-78
2021/07/29 02:29:15;;;;;;;3.95;3.65;;;19.90;99.90;;;;;;5102787;27;20231;-78
2021/07/29 02:31:42;;;;;;;4.35;3.75;;;19.90;99.90;;;;;;5098667;28;20774;-78
2021/07/29 02:34:09;;;;;;;3.72;3.42;;;19.90;99.90;;;;;;5108351;27;20292;-78
2021/07/29 02:36:36;;;;;;;4.38;4.00;;;19.80;99.90;;;;;;5105495;27;20264;-77
2021/07/29 02:39:03;;;;;;;4.07;3.75;;;19.80;99.90;;;;;;5090332;27;20270;-78
2021/07/29 02:41:31;;;;;;;3.90;3.60;;;19.80;99.90;;;;;;5098800;27;20221;-78
2021/07/29 02:43:59;;;;;;;3.72;3.42;;;19.80;99.90;;;;;;5106572;28;20220;-78
2021/07/29 02:46:26;;;;;;;4.30;3.90;;;19.80;99.90;;;;;;5100425;28;20232;-78
2021/07/29 02:48:53;;;;;;;3.80;3.42;;;19.80;99.90;;;;;;5102549;28;20266;-78
2021/07/29 02:51:20;;;;;;;3.63;3.33;;;19.70;99.90;;;;;;5102231;28;20262;-78
2021/07/29 02:53:47;;;;;;;4.40;3.28;;;19.60;99.90;;;;;;5099468;28;20277;-78
2021/07/29 02:56:14;;;;;;;4.18;3.88;;;19.60;99.90;;;;;;5103561;28;20218;-77
2021/07/29 02:58:41;;;;;;;3.50;3.20;;;19.60;99.90;;;;;;5100011;28;20236;-78
2021/07/29 03:01:09;;;;;;;6.45;3.92;;;19.60;99.90;;;;;;5099291;27;20590;-78
2021/07/29 03:03:36;;;;;;;3.95;3.65;;;19.60;99.90;;;;;;5104312;28;20229;-77
2021/07/29 03:06:04;;;;;;;3.78;3.42;;;19.50;99.90;;;;;;5105178;28;20224;-78
2021/07/29 03:08:31;;;;;;;3.83;3.50;;;19.50;99.90;;;;;;5101280;28;20644;-78
2021/07/29 03:10:58;;;;;;;4.15;3.85;;;19.40;99.90;;;;;;5102737;28;20274;-78
2021/07/29 03:13:26;;;;;;;4.10;3.58;;;19.40;99.90;;;;;;5106918;28;20833;-77
2021/07/29 03:15:53;;;;;;;3.97;3.67;;;19.40;99.90;;;;;;5118427;28;20237;-77
2021/07/29 03:18:22;;;;;;;4.53;3.95;;;19.30;99.90;;;;;;5103718;28;20277;-78
2021/07/29 03:20:52;;;;;;;4.05;3.75;;;19.30;99.90;;;;;;5096010;28;20217;-78
2021/07/29 03:23:19;;;;;;;4.10;3.80;;;19.30;99.90;;;;;;5100472;28;20221;-78
2021/07/29 03:25:49;;;;;;;4.18;3.80;;;19.20;99.90;;;;;;5111527;28;20216;-78
2021/07/29 03:28:17;;;;;;;5.15;3.40;;;19.30;99.90;;;;;;5100826;28;20304;-77
2021/07/29 03:30:44;;;;;;;3.88;3.58;;;19.30;99.90;;;;;;5097043;28;20224;-79
2021/07/29 03:33:11;;;;;;;4.32;3.65;;;19.30;99.90;;;;;;5101457;28;20277;-78
2021/07/29 03:35:41;;;;;;;3.40;3.15;;;19.30;99.90;;;;;;5100111;28;20575;-78
2021/07/29 03:38:09;;;;;;;3.85;3.55;;;19.30;99.90;;;;;;5085634;28;20225;-78
2021/07/29 03:40:37;;;;;;;3.45;3.15;;;19.20;99.90;;;;;;5088944;28;20218;-78
2021/07/29 03:43:04;;;;;;;3.60;3.30;;;19.20;99.90;;;;;;5074413;28;20678;-77
2021/07/29 03:45:32;;;;;;;4.00;3.60;;;19.20;99.90;;;;;;5080606;28;20217;-77
2021/07/29 03:48:00;;;;;;;4.07;3.67;;;19.30;99.90;;;;;;5083459;28;20248;-77
2021/07/29 03:50:28;;;;;;;3.70;3.40;;;19.30;99.90;;;;;;5087846;28;20229;-77
2021/07/29 03:52:57;;;;;;;3.50;3.20;;;19.20;99.90;;;;;;5085045;28;20221;-77
2021/07/29 03:55:24;;;;;;;3.35;3.15;;;19.20;99.90;;;;;;5082694;28;20220;-77
2021/07/29 03:57:51;;;;;;;4.38;3.45;;;19.20;99.90;;;;;;5085976;28;20895;-77
2021/07/29 04:00:19;;;;;;;3.60;3.30;;;19.10;99.90;;;;;;5084089;28;20286;-77
2021/07/29 04:02:46;;;;;;;3.30;3.00;;;19.10;99.90;;;;;;5082891;28;20213;-77
2021/07/29 04:05:13;;;;;;;3.05;2.75;;;19.10;99.90;;;;;;5080615;28;20776;-78
2021/07/29 04:07:40;;;;;;;3.35;3.05;;;19.10;99.90;;;;;;5101808;28;20228;-77
2021/07/29 04:10:09;;;;;;;5.07;3.30;;;19.10;99.90;;;;;;5079924;28;20225;-78
2021/07/29 04:12:36;;;;;;;4.57;3.30;;;19.10;99.90;;;;;;5084308;28;20229;-78
2021/07/29 04:15:03;;;;;;;3.05;2.80;;;19.00;99.90;;;;;;5088862;28;20639;-78
2021/07/29 04:17:30;;;;;;;3.40;3.10;;;19.00;99.90;;;;;;5081757;28;20221;-78
2021/07/29 04:19:59;;;;;;;3.13;2.92;;;19.00;99.90;;;;;;5087116;28;20221;-78
2021/07/29 04:22:26;;;;;;;3.70;3.40;;;19.00;99.90;;;;;;5089029;28;25432;-78
2021/07/29 04:24:55;;;;;;;3.40;3.10;;;19.00;99.90;;;;;;5097522;28;20213;-78
2021/07/29 04:27:23;;;;;;;3.40;3.08;;;19.00;99.90;;;;;;5083006;28;20228;-78
2021/07/29 04:29:51;;;;;;;3.58;3.28;;;19.00;99.90;;;;;;5084997;28;20213;-78
2021/07/29 04:32:20;;;;;;;3.60;3.30;;;19.10;99.90;;;;;;5081782;28;20591;-78
2021/07/29 04:34:47;;;;;;;3.88;3.40;;;19.20;99.90;;;;;;5090087;28;20310;-77
2021/07/29 04:37:14;;;;;;;3.65;3.20;;;19.20;99.90;;;;;;5087450;28;20270;-78
2021/07/29 04:39:42;;;;;;;3.13;2.92;;;19.30;99.90;;;;;;5089387;28;20229;-77
2021/07/29 04:42:10;;;;;;;4.90;3.63;;;19.30;99.90;;;;;;5088294;28;20217;-78
2021/07/29 04:44:39;;;;;;;4.45;3.22;;;19.40;99.90;;;;;;5086828;28;20243;-77
2021/07/29 04:47:06;;;;;;;3.50;3.20;;;19.50;99.90;;;;;;5088372;28;20225;-76
2021/07/29 04:49:33;;;;;;;3.53;3.22;;;19.60;99.90;;;;;;5090089;28;20229;-77
2021/07/29 04:52:00;;;;;;;3.75;3.45;;;19.70;99.90;;;;;;5084112;28;20229;-77
2021/07/29 04:54:27;;;;;;;5.15;3.60;;;19.80;99.90;;;;;;5080840;28;20282;-77
2021/07/29 04:56:54;;;;;;;3.65;3.30;;;19.90;99.90;;;;;;5080008;28;20274;-77
2021/07/29 04:59:22;;;;;;;4.00;3.50;;;20.00;99.90;;;;;;5100990;28;20222;-76
2021/07/29 05:01:50;;;;;;;3.75;3.40;;;20.20;99.90;;;;;;5083129;28;20300;-77
2021/07/29 05:04:17;;;;;;;3.70;3.33;;;20.30;99.90;;;;;;5082054;28;20336;-78
2021/07/29 05:06:44;;;;;;;3.88;3.13;;;20.30;99.90;;;;;;5080285;28;20221;-77
2021/07/29 05:09:12;;;;;;;4.32;3.15;;;20.30;99.90;;;;;;5077541;28;20627;-76
2021/07/29 05:11:39;;;;;;;4.13;3.83;;;20.20;99.90;;;;;;5084406;28;20271;-76
2021/07/29 05:14:06;;;;;;;4.00;3.22;;;20.30;99.90;;;;;;5081776;28;20247;-77
2021/07/29 05:16:33;;;;;;;5.45;3.83;;;20.30;99.90;;;;;;5084662;28;20221;-76
2021/07/29 05:19:02;;;;;;;4.03;3.60;;;20.40;99.90;;;;;;5087926;28;20221;-77
2021/07/29 05:21:30;;;;;;;3.60;3.30;;;20.40;99.90;;;;;;5078514;28;20217;-76
2021/07/29 05:23:57;;;;;;;4.53;3.55;;;20.40;99.90;;;;;;5077460;28;20228;-77
2021/07/29 05:26:25;;;;;;;5.75;3.95;;;20.50;99.90;;;;;;5083435;28;20274;-76
2021/07/29 05:28:52;;;;;;;3.80;3.50;;;20.60;99.90;;;;;;5088012;28;20233;-76
2021/07/29 05:31:19;;;;;;;3.88;3.58;;;20.50;99.90;;;;;;5084052;28;20220;-77
2021/07/29 05:33:46;;;;;;;4.03;3.45;;;20.40;99.90;;;;;;5084901;28;20224;-76
2021/07/29 05:36:14;;;;;;;4.72;3.78;;;20.40;99.90;;;;;;5084821;28;20271;-76
2021/07/29 05:38:41;;;;;;;3.88;3.58;;;20.40;99.90;;;;;;5086984;28;20648;-77
2021/07/29 05:41:09;;;;;;;4.00;3.60;;;20.40;99.90;;;;;;5085945;28;20221;-77
2021/07/29 05:43:36;;;;;;;3.65;3.35;;;20.40;99.90;;;;;;5085605;28;20306;-76
2021/07/29 05:46:07;;;;;;;4.85;3.83;;;20.50;99.90;;;;;;5088511;28;20230;-77
2021/07/29 05:48:34;;;;;;;5.97;3.97;;;20.50;99.90;;;;;;5087198;28;20300;-77
2021/07/29 05:51:02;;;;;;;4.47;3.85;;;20.50;99.90;;;;;;5090437;28;20233;-77
2021/07/29 05:53:31;;;;;;;4.25;3.55;;;20.50;99.90;;;;;;5084358;28;20252;-76
2021/07/29 05:55:59;;;;;;;4.13;3.72;;;20.70;99.90;;;;;;5081124;28;20779;-77
2021/07/29 05:58:26;;;;;;;4.20;3.80;;;20.80;99.90;;;;;;5089205;28;20222;-76
2021/07/29 06:00:54;;;;;;;4.38;3.70;;;20.90;99.90;;;;;;5086487;28;20616;-77
2021/07/29 06:03:21;;;;;;;3.92;3.63;;;21.00;99.90;;;;;;5087310;28;20708;-77
2021/07/29 06:05:48;;;;;;;4.55;4.03;;;21.00;99.90;;;;;;5083989;28;20221;-77
2021/07/29 06:08:15;;;;;;;5.15;3.95;;;21.00;99.90;;;;;;5089068;28;20233;-77
2021/07/29 06:10:44;;;;;;;5.53;3.75;;;21.00;99.90;;;;;;5087789;28;20212;-77
2021/07/29 06:13:10;;;;;;;4.72;4.22;;;21.00;99.90;;;;;;5086631;28;20672;-77
2021/07/29 06:15:38;;;;;;;5.50;4.50;;;21.00;99.90;;;;;;5083936;28;20213;-77
2021/07/29 06:18:09;;;;;;;8.07;4.35;;;21.00;99.90;;;;;;5089801;28;20285;-77
2021/07/29 06:20:36;;;;;;;5.78;4.22;;;20.90;99.90;;;;;;5086420;28;20727;-77
2021/07/29 06:23:03;;;;;;;5.15;3.90;;;21.00;99.90;;;;;;5083982;28;20221;-77
2021/07/29 06:25:30;;;;;;;4.20;3.80;;;21.10;99.90;;;;;;5086576;28;20263;-77
2021/07/29 06:27:58;;;;;;;5.22;4.50;;;21.10;99.90;;;;;;5087012;28;20222;-77
2021/07/29 06:30:25;;;;;;;3.90;3.60;;;21.20;99.90;;;;;;5083601;28;20225;-77
2021/07/29 06:32:52;;;;;;;4.20;3.80;;;21.20;99.90;;;;;;5081531;28;20221;-77
2021/07/29 06:35:20;;;;;;;5.55;3.83;;;21.10;99.90;;;;;;5088711;28;20213;-77
2021/07/29 06:37:47;;;;;;;4.20;3.70;;;21.20;99.90;;;;;;5082611;28;20847;-78
2021/07/29 06:40:14;;;;;;;5.50;4.30;;;21.20;99.90;;;;;;5087618;28;20236;-77
2021/07/29 06:42:41;;;;;;;5.65;3.83;;;21.20;99.90;;;;;;5087451;28;20577;-77
2021/07/29 06:45:10;;;;;;;7.70;4.65;;;21.30;99.90;;;;;;5084948;28;20225;-77
2021/07/29 06:47:37;;;;;;;4.60;4.20;;;21.40;99.90;;;;;;5083814;28;20282;-77
2021/07/29 06:50:06;;;;;;;5.03;4.35;;;21.50;99.90;;;;;;5082913;28;20218;-77
2021/07/29 06:52:33;;;;;;;7.05;4.03;;;21.60;99.90;;;;;;5083328;28;20804;-76
2021/07/29 06:55:00;;;;;;;5.18;4.05;;;21.80;99.90;;;;;;5084540;28;20221;-77
2021/07/29 06:57:27;;;;;;;5.60;4.55;;;21.80;99.90;;;;;;5077532;28;20765;-77
2021/07/29 06:59:54;;;;;;;5.03;4.55;;;21.90;99.90;;;;;;5080083;28;20213;-78
2021/07/29 07:02:22;;;;;;;3.90;3.60;;;22.00;99.90;;;;;;5080519;28;20290;-77
2021/07/29 07:04:49;;;;;;;4.30;3.90;;;22.20;99.90;;;;;;5080503;28;20225;-77
2021/07/29 07:07:17;;;;;;;4.30;3.90;;;22.20;99.90;;;;;;5074866;28;20218;-78
2021/07/29 07:09:45;;;;;;;5.10;4.00;;;22.30;99.90;;;;;;5079128;28;20210;-78
2021/07/29 07:12:12;;;;;;;3.90;3.60;;;22.30;99.90;;;;;;5074647;28;20225;-77
2021/07/29 07:14:39;;;;;;;4.40;4.00;;;22.50;99.90;;;;;;5073176;28;20229;-78
2021/07/29 07:17:07;;;;;;;3.95;3.53;;;22.70;99.90;;;;;;5065687;28;20642;-77
2021/07/29 07:19:36;;;;;;;4.55;4.05;;;22.80;99.90;;;;;;5083493;28;20241;-79
2021/07/29 07:22:03;;;;;;;4.40;4.00;;;22.90;99.90;;;;;;5081556;27;20691;-79
2021/07/29 07:24:33;;;;;;;5.28;4.60;;;22.90;99.90;;;;;;5080344;28;20225;-77
2021/07/29 07:27:00;;;;;;;5.22;4.10;;;22.90;99.90;;;;;;5080248;28;20233;-78
2021/07/29 07:29:27;;;;;;;5.63;3.70;;;23.00;99.90;;;;;;5082197;27;20225;-77
2021/07/29 07:31:54;;;;;;;4.57;4.05;;;23.00;99.90;;;;;;5082723;27;20267;-78
2021/07/29 07:34:21;;;;;;;7.80;4.35;;;23.20;99.90;;;;;;5081018;27;20218;-77
2021/07/29 07:36:49;;;;;;;7.00;4.13;;;23.10;99.90;;;;;;5086467;27;20221;-77
2021/07/29 07:39:16;;;;;;;4.25;3.85;;;23.10;99.90;;;;;;5083081;27;20274;-78
2021/07/29 07:41:43;;;;;;;5.00;3.40;;;23.10;99.90;;;;;;5086020;27;20714;-77
2021/07/29 07:44:10;;;;;;;4.35;3.95;;;23.10;99.90;;;;;;5080540;28;20217;-77
2021/07/29 07:46:38;;;;;;;3.92;3.63;;;23.10;99.90;;;;;;5077377;28;20241;-78
2021/07/29 07:49:05;;;;;;;4.78;3.88;;;23.20;99.90;;;;;;5084106;28;20676;-78
2021/07/29 07:51:32;;;;;;;5.22;4.03;;;23.20;99.90;;;;;;5076547;28;20226;-77
2021/07/29 07:54:00;;;;;;;4.88;4.47;;;23.40;99.90;;;;;;5079379;27;20221;-77
2021/07/29 07:56:27;;;;;;;4.40;4.00;;;23.40;99.90;;;;;;5077862;28;20225;-77
2021/07/29 07:58:54;;;;;;;5.55;4.43;;;23.50;99.90;;;;;;5084012;27;20310;-77
2021/07/29 08:01:21;;;;;;;4.80;4.30;;;23.50;99.90;;;;;;5080410;28;20221;-76
2021/07/29 08:03:48;;;;;;;4.32;3.92;;;23.70;99.90;;;;;;5081287;27;20218;-77
2021/07/29 08:06:15;;;;;;;6.78;4.18;;;23.80;99.90;;;;;;5076543;28;20722;-79
2021/07/29 08:08:43;;;;;;;4.82;3.80;;;23.90;99.90;;;;;;5082174;28;20278;-78
2021/07/29 08:11:12;;;;;;;6.25;4.13;;;24.00;99.90;;;;;;5085046;28;20300;-77
2021/07/29 08:13:39;;;;;;;5.50;4.15;;;24.10;99.90;;;;;;5082785;27;20237;-78
2021/07/29 08:16:09;;;;;;;5.90;4.07;;;24.10;99.90;;;;;;5085389;28;20648;-78
2021/07/29 08:18:36;;;;;;;4.30;4.00;;;24.20;99.90;;;;;;5083153;27;20781;-77
2021/07/29 08:21:09;;;;;;;4.53;4.13;;;24.40;99.90;;;;;;5084784;28;20221;-78
2021/07/29 08:23:36;;;;;;;5.10;4.13;;;24.60;99.90;;;;;;5080540;27;20214;-77
2021/07/29 08:26:03;;;;;;;5.53;4.35;;;24.70;99.90;;;;;;5082131;28;20209;-77
2021/07/29 08:28:31;;;;;;;5.15;3.85;;;24.60;99.90;;;;;;5081546;27;20217;-78
2021/07/29 08:30:58;;;;;;;4.68;3.70;;;24.80;99.90;;;;;;5078542;28;20747;-77
2021/07/29 08:33:25;;;;;;;5.15;4.50;;;24.80;99.90;;;;;;5078546;27;20232;-77
2021/07/29 08:35:52;;;;;;;5.25;4.25;;;24.90;99.90;;;;;;5076616;28;20622;-78
2021/07/29 08:38:19;;;;;;;4.75;4.35;;;25.10;99.90;;;;;;5078318;28;20213;-78
2021/07/29 08:40:46;;;;;;;5.32;4.47;;;25.00;99.90;;;;;;5077456;28;20225;-77
2021/07/29 08:43:13;;;;;;;4.35;3.85;;;25.00;99.90;;;;;;5080844;27;20259;-78
2021/07/29 08:45:45;;;;;;;4.20;3.80;;;25.20;99.90;;;;;;5081115;27;20217;-78
2021/07/29 08:48:15;;;;;;;4.70;4.30;;;25.40;99.90;;;;;;5082046;28;20776;-77
2021/07/29 08:50:43;;;;;;;5.97;3.88;;;25.40;99.90;;;;;;5081529;27;20225;-77
2021/07/29 08:53:10;;;;;;;4.63;4.10;;;25.30;99.90;;;;;;5085333;28;20229;-77
2021/07/29 08:55:37;;;;;;;4.82;4.43;;;25.20;99.90;;;;;;5081005;28;20252;-78
2021/07/29 08:58:05;;;;;;;4.10;3.70;;;25.20;99.90;;;;;;5081155;28;20249;-78
2021/07/29 09:00:32;;;;;;;4.05;3.75;;;25.40;99.90;;;;;;5082994;27;20221;-78
2021/07/29 09:03:19;;;;;;;4.95;3.95;;;25.60;99.90;;;;;;5079993;28;20240;-77
2021/07/29 09:06:00;;;;;;;4.93;4.28;;;26.00;99.90;;;;;;5081502;28;20225;-76
2021/07/29 09:08:28;;;;;;;4.60;4.22;;;26.00;99.90;;;;;;5079764;28;20263;-76
2021/07/29 09:10:55;;;;;;;4.45;4.05;;;26.00;99.90;;;;;;5076030;27;20775;-77
2021/07/29 09:13:22;;;;;;;4.05;3.65;;;25.90;99.90;;;;;;5073868;27;20748;-78
2021/07/29 09:16:11;;;;;;;4.43;4.07;;;26.00;99.90;;;;;;5081257;28;20728;-78
2021/07/29 09:18:39;;;;;;;4.25;3.78;;;26.10;99.90;;;;;;5078763;28;20213;-77
2021/07/29 09:21:12;;;;;;;4.38;3.97;;;26.50;99.90;;;;;;5082398;28;20275;-79
2021/07/29 09:23:39;;;;;;;4.50;4.20;;;26.50;99.90;;;;;;5072322;28;20306;-77
2021/07/29 09:26:06;;;;;;;4.75;4.20;;;26.50;99.90;;;;;;5078372;28;20229;-78
2021/07/29 09:28:35;;;;;;;4.38;3.67;;;26.40;99.90;;;;;;5078846;28;20233;-78
2021/07/29 09:31:16;;;;;;;4.10;3.70;;;26.50;99.90;;;;;;5060333;28;20217;-76
2021/07/29 09:33:57;;;;;;;3.97;3.67;;;26.90;99.90;;;;;;5079435;28;20221;-77
2021/07/29 09:36:24;;;;;;;4.78;4.15;;;27.00;99.90;;;;;;5083175;28;20217;-77
2021/07/29 09:38:51;;;;;;;4.93;4.43;;;27.00;99.90;;;;;;5077538;28;20248;-77
2021/07/29 09:41:27;;;;;;;5.28;4.25;;;26.70;99.90;;;;;;5080859;28;20894;-77
2021/07/29 09:43:55;;;;;;;4.40;3.60;;;26.50;99.90;;;;;;5079250;28;20846;-78
2021/07/29 09:46:24;;;;;;;4.25;3.85;;;26.50;99.90;;;;;;5077276;28;20217;-76
2021/07/29 09:48:51;;;;;;;4.20;3.80;;;26.70;99.90;;;;;;5075853;28;20656;-76
2021/07/29 09:51:21;;;;;;;4.68;4.00;;;26.70;99.90;;;;;;5076234;28;20631;-77
2021/07/29 09:53:51;;;;;;;4.95;4.40;;;26.70;99.90;;;;;;5079412;28;20233;-78
2021/07/29 09:56:18;;;;;;;4.78;4.38;;;26.60;99.90;;;;;;5077107;28;20230;-77
2021/07/29 09:58:45;;;;;;;4.05;3.72;;;26.60;99.90;;;;;;5075625;28;20267;-78
2021/07/29 10:01:16;;;;;;;4.40;4.03;;;26.70;99.90;;;;;;5081194;28;20260;-78
2021/07/29 10:03:48;;;;;;;4.60;4.20;;;26.80;99.90;;;;;;5073520;28;20302;-78
2021/07/29 10:06:17;;;;;;;4.70;4.30;;;27.10;99.90;;;;;;5075978;28;20350;-78
2021/07/29 10:08:54;;;;;;;4.75;4.32;;;27.10;99.90;;;;;;5080137;28;20279;-77
2021/07/29 10:11:24;;;;;;;5.18;4.68;;;27.00;99.90;;;;;;5077812;28;20216;-77
2021/07/29 10:13:51;;;;;;;5.35;4.55;;;27.10;99.90;;;;;;5076862;28;20278;-77
2021/07/29 10:16:39;;;;;;;4.95;4.05;;;27.30;99.90;;;;;;5077747;28;20654;-75
2021/07/29 10:19:07;;;;;;;4.40;4.00;;;27.20;99.90;;;;;;5078491;28;20318;-77
2021/07/29 10:21:36;;;;;;;4.93;4.43;;;27.30;99.90;;;;;;5075874;28;20229;-79
2021/07/29 10:24:05;;;;;;;4.22;3.83;;;27.60;99.90;;;;;;5083445;28;20815;-79
2021/07/29 10:26:35;;;;;;;4.50;4.10;;;27.70;99.90;;;;;;5078070;28;20332;-78
2021/07/29 10:29:27;;;;;;;4.75;4.28;;;27.80;99.90;;;;;;5079680;28;20313;-78
2021/07/29 10:31:55;;;;;;;5.00;4.38;;;27.70;99.90;;;;;;5076607;28;20259;-79
2021/07/29 10:34:27;;;;;;;4.43;4.05;;;27.70;99.90;;;;;;5077855;28;20225;-79
2021/07/29 10:36:57;;;;;;;3.88;3.58;;;27.80;99.90;;;;;;5072089;28;20297;-78
2021/07/29 10:39:27;;;;;;;4.03;3.72;;;27.80;99.90;;;;;;5085100;27;20367;-79
2021/07/29 10:41:56;;;;;;;4.80;4.10;;;27.80;99.90;;;;;;5077280;27;20210;-78
2021/07/29 10:44:48;;;;;;;4.60;4.10;;;27.60;99.90;;;;;;5074279;28;20225;-79
2021/07/29 10:47:30;;;;;;;4.65;4.10;;;27.60;99.90;;;;;;5080554;27;20220;-77
2021/07/29 10:50:20;;;;;;;4.03;3.72;;;27.70;99.90;;;;;;5081243;28;20225;-78
2021/07/29 10:52:49;;;;;;;4.43;4.05;;;27.70;99.90;;;;;;5084860;27;20217;-76
2021/07/29 10:55:18;;;;;;;4.70;4.25;;;27.90;99.90;;;;;;5083976;28;20236;-77
2021/07/29 10:58:13;;;;;;;4.40;4.00;;;28.00;99.90;;;;;;5087056;27;20221;-79
2021/07/29 11:00:52;;;;;;;4.60;4.15;;;28.20;99.90;;;;;;5084996;28;20848;-78
2021/07/29 11:03:22;;;;;;;4.13;3.83;;;28.20;99.90;;;;;;5082869;27;20311;-78
2021/07/29 11:06:02;;;;;;;5.07;4.35;;;28.20;99.90;;;;;;5081135;28;20628;-80
2021/07/29 11:08:30;;;;;;;5.43;4.35;;;28.20;99.90;;;;;;5085131;28;20225;-79
2021/07/29 11:11:03;;;;;;;4.43;4.07;;;28.30;99.90;;;;;;5083700;28;20237;-79
2021/07/29 11:13:30;;;;;;;4.60;4.10;;;28.40;99.90;;;;;;5083090;28;20651;-78
2021/07/29 11:16:00;;;;;;;4.60;4.20;;;28.50;99.90;;;;;;5086684;27;20231;-79
2021/07/29 11:18:27;;;;;;;6.60;4.38;;;28.60;99.90;;;;;;5080581;28;20252;-77
2021/07/29 11:20:54;;;;;;;4.75;4.28;;;28.60;99.90;;;;;;5080692;28;20284;-78
2021/07/29 11:23:35;;;;;;;3.97;3.67;;;28.40;99.90;;;;;;5083394;28;20229;-77
2021/07/29 11:26:05;;;;;;;4.60;4.13;;;28.60;99.90;;;;;;5081677;28;20236;-79
2021/07/29 11:28:33;;;;;;;4.15;3.75;;;28.80;99.90;;;;;;5080483;28;20221;-78
2021/07/29 11:31:00;;;;;;;4.40;4.00;;;29.00;99.90;;;;;;5081116;28;20279;-79
2021/07/29 11:33:29;;;;;;;4.53;4.00;;;29.20;99.90;;;;;;5082620;28;20236;-78
2021/07/29 11:35:57;;;;;;;5.25;4.32;;;29.20;99.90;;;;;;5079709;28;20730;-78
2021/07/29 11:38:25;;;;;;;3.78;3.47;;;29.10;99.90;;;;;;5081204;28;20230;-78
2021/07/29 11:41:00;;;;;;;4.28;3.88;;;29.10;99.90;;;;;;5084847;28;20220;-78
2021/07/29 11:43:29;;;;;;;4.70;4.25;;;29.10;99.90;;;;;;5083467;28;20315;-78
2021/07/29 11:46:05;;;;;;;4.22;3.83;;;29.00;99.90;;;;;;5082864;28;20233;-78
2021/07/29 11:48:32;;;;;;;4.65;3.72;;;29.00;99.90;;;;;;5081212;27;20411;-77
2021/07/29 11:50:59;;;;;;;4.20;3.83;;;29.00;99.90;;;;;;5077968;28;20221;-77
2021/07/29 11:53:39;;;;;;;4.05;3.70;;;29.00;99.90;;;;;;5077985;27;20237;-78
2021/07/29 11:56:11;;;;;;;3.97;3.67;;;29.10;99.90;;;;;;5082968;28;20220;-78
2021/07/29 11:58:41;;;;;;;4.88;4.47;;;29.00;99.90;;;;;;5082019;28;20225;-78
2021/07/29 12:01:12;;;;;;;4.10;3.80;;;29.00;99.90;;;;;;5087390;28;20220;-78
2021/07/29 12:03:42;;;;;;;4.47;3.63;;;29.20;99.90;;;;;;5087062;28;20492;-77
2021/07/29 12:06:09;;;;;;;4.20;3.80;;;29.20;99.90;;;;;;5063544;28;20227;-79
2021/07/29 12:08:41;;;;;;;3.67;3.38;;;29.10;99.90;;;;;;5066002;28;20336;-78
2021/07/29 12:11:10;;;;;;;3.92;3.58;;;29.10;99.90;;;;;;5065065;28;20305;-78
2021/07/29 12:13:43;;;;;;;3.80;3.50;;;29.20;99.90;;;;;;5064994;28;20234;-78
2021/07/29 12:16:10;;;;;;;3.95;3.47;;;29.20;99.90;;;;;;5062221;28;20222;-78
2021/07/29 12:18:38;;;;;;;3.65;3.35;;;29.20;99.90;;;;;;5062452;28;20233;-78
2021/07/29 12:21:06;;;;;;;3.50;3.20;;;29.20;99.90;;;;;;5070330;28;20226;-77
2021/07/29 12:23:34;;;;;;;4.55;3.90;;;29.30;99.90;;;;;;5084787;28;20229;-77
2021/07/29 12:26:13;;;;;;;3.88;3.58;;;29.30;99.90;;;;;;5073940;28;20226;-78
2021/07/29 12:28:43;;;;;;;4.40;4.00;;;29.20;99.90;;;;;;5063680;28;20290;-78
2021/07/29 12:31:21;;;;;;;5.43;3.90;;;29.20;99.90;;;;;;5069134;28;20226;-78
2021/07/29 12:33:55;;;;;;;3.67;3.38;;;29.10;99.90;;;;;;5064022;28;20323;-77
2021/07/29 12:36:23;;;;;;;4.32;3.92;;;29.30;99.90;;;;;;5057309;28;20227;-79
2021/07/29 12:39:01;;;;;;;4.22;3.42;;;29.40;99.90;;;;;;5081697;28;20217;-78
2021/07/29 12:41:33;;;;;;;4.45;4.03;;;29.40;99.90;;;;;;5080612;28;20713;-78
2021/07/29 12:44:09;;;;;;;5.68;4.10;;;29.40;99.90;;;;;;5078349;28;20302;-78
2021/07/29 12:46:36;;;;;;;4.63;4.22;;;29.40;99.90;;;;;;5078287;28;20221;-77
2021/07/29 12:49:03;;;;;;;3.88;3.47;;;29.50;99.90;;;;;;5074930;28;20777;-79
2021/07/29 12:51:38;;;;;;;4.43;4.03;;;29.50;99.90;;;;;;5081570;28;20217;-78
2021/07/29 12:54:05;;;;;;;4.60;3.88;;;29.60;99.90;;;;;;5088035;28;20224;-78
2021/07/29 12:56:32;;;;;;;3.95;3.65;;;29.70;99.90;;;;;;5082582;28;20225;-77
2021/07/29 12:58:59;;;;;;;5.97;3.53;;;29.80;99.90;;;;;;5084914;28;20315;-78
2021/07/29 13:01:28;;;;;;;4.38;3.75;;;30.00;99.90;;;;;;5082946;28;20271;-80
2021/07/29 13:03:55;;;;;;;4.43;4.03;;;30.20;99.90;;;;;;5083204;28;20224;-78
2021/07/29 13:06:23;;;;;;;5.20;4.43;;;30.20;99.90;;;;;;5081804;28;20221;-79
2021/07/29 13:08:50;;;;;;;4.82;4.13;;;30.00;99.90;;;;;;5065952;28;20217;-79
2021/07/29 13:11:17;;;;;;;5.55;4.30;;;30.10;99.90;;;;;;5062695;28;20692;-78
2021/07/29 13:13:45;;;;;;;4.80;4.05;;;30.00;99.90;;;;;;5057609;28;20711;-77
2021/07/29 13:16:12;;;;;;;6.47;4.63;;;30.00;99.90;;;;;;5069149;28;20228;-77
2021/07/29 13:18:41;;;;;;;5.03;4.53;;;30.00;99.90;;;;;;5078418;28;20229;-77
2021/07/29 13:21:08;;;;;;;4.45;4.05;;;29.90;99.90;;;;;;5077926;28;20225;-78
2021/07/29 13:23:36;;;;;;;5.03;4.05;;;30.00;99.90;;;;;;5071982;28;20255;-78
2021/07/29 13:26:03;;;;;;;4.53;3.83;;;30.00;99.90;;;;;;5078368;28;20224;-77
2021/07/29 13:28:31;;;;;;;5.72;3.88;;;30.10;99.90;;;;;;5076708;28;20233;-78
2021/07/29 13:31:01;;;;;;;4.57;3.85;;;30.10;99.90;;;;;;5075131;28;20229;-78
2021/07/29 13:33:29;;;;;;;4.43;3.88;;;30.20;99.90;;;;;;5080778;28;20320;-78
2021/07/29 13:35:57;;;;;;;5.10;4.07;;;30.20;99.90;;;;;;5076281;28;20221;-78
2021/07/29 13:38:25;;;;;;;6.47;4.43;;;30.30;99.90;;;;;;5078662;28;20217;-78
2021/07/29 13:40:52;;;;;;;4.60;4.20;;;30.30;99.90;;;;;;5074813;27;20225;-78
2021/07/29 13:43:20;;;;;;;5.10;4.50;;;30.20;99.90;;;;;;5078108;28;20864;-77
2021/07/29 13:45:48;;;;;;;5.30;4.40;;;30.30;99.90;;;;;;5080090;28;20258;-78
2021/07/29 13:48:15;;;;;;;5.38;4.30;;;30.10;99.90;;;;;;5080651;28;20233;-77
2021/07/29 13:50:43;;;;;;;6.47;4.38;;;30.10;99.90;;;;;;5079831;28;20221;-78
2021/07/29 13:53:11;;;;;;;4.35;3.97;;;30.20;99.90;;;;;;5074146;28;20225;-77
2021/07/29 13:55:39;;;;;;;4.32;3.92;;;30.20;99.90;;;;;;5079199;28;20233;-77
2021/07/29 13:58:06;;;;;;;4.50;4.10;;;30.10;99.90;;;;;;5082337;28;20223;-77
2021/07/29 14:00:33;;;;;;;6.38;4.18;;;30.10;99.90;;;;;;5081575;28;20229;-77
2021/07/29 14:03:01;;;;;;;6.47;4.38;;;30.00;99.90;;;;;;5080005;28;20290;-77
2021/07/29 14:05:30;;;;;;;10.18;4.50;;;29.80;99.90;;;;;;5082533;28;21528;-80
2021/07/29 14:07:57;;;;;;;4.60;4.07;;;29.80;99.90;;;;;;5080468;28;20250;-79
2021/07/29 14:10:25;;;;;;;4.40;3.85;;;30.00;99.90;;;;;;5080170;28;20228;-77
2021/07/29 14:12:53;;;;;;;3.92;3.63;;;30.10;99.90;;;;;;5079597;28;20279;-78
2021/07/29 14:15:20;;;;;;;5.03;4.20;;;30.20;99.90;;;;;;5080585;28;20312;-77
2021/07/29 14:17:52;;;;;;;7.70;4.45;;;30.20;99.90;;;;;;5078820;28;20225;-78
2021/07/29 14:20:24;;;;;;;4.97;3.90;;;30.20;99.90;;;;;;5081842;27;20209;-79
2021/07/29 14:23:02;;;;;;;4.53;4.00;;;30.20;99.90;;;;;;5080454;27;20237;-78
2021/07/29 14:25:31;;;;;;;4.50;4.10;;;30.20;99.90;;;;;;5083631;28;20302;-77
2021/07/29 14:27:59;;;;;;;5.15;4.43;;;30.20;99.90;;;;;;5079899;27;20332;-78
2021/07/29 14:30:27;;;;;;;5.68;4.47;;;30.10;99.90;;;;;;5079427;27;20239;-77
2021/07/29 14:32:54;;;;;;;5.13;4.63;;;30.10;99.90;;;;;;5075785;28;20305;-78
2021/07/29 14:35:22;;;;;;;4.35;3.97;;;30.20;99.90;;;;;;5078094;28;20282;-77
2021/07/29 14:37:49;;;;;;;5.47;4.07;;;30.10;99.90;;;;;;5077635;28;20221;-76
2021/07/29 14:40:17;;;;;;;5.30;4.78;;;30.00;99.90;;;;;;5077477;28;20261;-77
2021/07/29 14:42:45;;;;;;;8.38;4.78;;;29.80;99.90;;;;;;5076671;28;20221;-76
2021/07/29 14:50:38;;;;;;;6.30;4.57;;;29.70;99.90;;;;;;5097571;27;20908;-79
2021/07/29 14:53:07;;;;;;;5.70;4.72;;;29.60;99.90;;;;;;5079472;27;20217;-78
2021/07/29 14:55:43;;;;;;;7.40;4.28;;;29.60;99.90;;;;;;5080202;28;20795;-77